sensor_id;sensor_type;location;lat;lon;timestamp;P1;durP1;ratioP1;P2;durP2;ratioP2
59273;SDS011;45044;41.572;24.730;2024-02-16T00:02:14;11.53;;;5.33;;
59273;SDS011;45044;41.572;24.730;2024-02-16T00:04:43;9.43;;;5.07;;
59273;SDS011;45044;41.572;24.730;2024-02-16T00:07:11;9.80;;;4.97;;
59273;SDS011;45044;41.572;24.730;2024-02-16T00:09:38;11.30;;;5.17;;
59273;SDS011;45044;41.572;24.730;2024-02-16T00:12:06;13.93;;;6.73;;
59273;SDS011;45044;41.572;24.730;2024-02-16T00:14:33;17.60;;;8.57;;
59273;SDS011;45044;41.572;24.730;2024-02-16T00:17:00;18.53;;;9.10;;
59273;SDS011;45044;41.572;24.730;2024-02-16T00:19:26;27.37;;;14.60;;
59273;SDS011;45044;41.572;24.730;2024-02-16T00:21:54;25.87;;;12.83;;
59273;SDS011;45044;41.572;24.730;2024-02-16T00:24:22;19.00;;;8.67;;
59273;SDS011;45044;41.572;24.730;2024-02-16T00:26:48;19.60;;;8.47;;
59273;SDS011;45044;41.572;24.730;2024-02-16T00:29:16;15.03;;;8.13;;
59273;SDS011;45044;41.572;24.730;2024-02-16T00:31:42;14.37;;;7.10;;
59273;SDS011;45044;41.572;24.730;2024-02-16T00:34:09;9.83;;;4.53;;
59273;SDS011;45044;41.572;24.730;2024-02-16T00:36:36;10.30;;;5.10;;
59273;SDS011;45044;41.572;24.730;2024-02-16T00:39:04;6.47;;;3.47;;
59273;SDS011;45044;41.572;24.730;2024-02-16T00:41:31;7.30;;;3.60;;
59273;SDS011;45044;41.572;24.730;2024-02-16T00:43:57;11.67;;;5.47;;
59273;SDS011;45044;41.572;24.730;2024-02-16T00:46:24;11.57;;;5.87;;
59273;SDS011;45044;41.572;24.730;2024-02-16T00:48:51;17.37;;;8.73;;
59273;SDS011;45044;41.572;24.730;2024-02-16T00:51:20;10.47;;;4.70;;
59273;SDS011;45044;41.572;24.730;2024-02-16T00:53:47;12.27;;;5.27;;
59273;SDS011;45044;41.572;24.730;2024-02-16T00:56:14;15.73;;;7.33;;
59273;SDS011;45044;41.572;24.730;2024-02-16T00:58:41;16.53;;;8.80;;
59273;SDS011;45044;41.572;24.730;2024-02-16T01:01:10;12.73;;;7.23;;
59273;SDS011;45044;41.572;24.730;2024-02-16T01:03:38;13.87;;;8.20;;
59273;SDS011;45044;41.572;24.730;2024-02-16T01:06:06;13.10;;;6.70;;
59273;SDS011;45044;41.572;24.730;2024-02-16T01:08:35;7.90;;;3.30;;
59273;SDS011;45044;41.572;24.730;2024-02-16T01:11:02;6.43;;;3.50;;
59273;SDS011;45044;41.572;24.730;2024-02-16T01:13:29;9.33;;;3.77;;
59273;SDS011;45044;41.572;24.730;2024-02-16T01:15:56;18.37;;;8.80;;
59273;SDS011;45044;41.572;24.730;2024-02-16T01:18:23;14.37;;;7.93;;
59273;SDS011;45044;41.572;24.730;2024-02-16T01:20:50;19.20;;;8.27;;
59273;SDS011;45044;41.572;24.730;2024-02-16T01:23:17;7.43;;;3.63;;
59273;SDS011;45044;41.572;24.730;2024-02-16T01:25:44;7.83;;;3.43;;
59273;SDS011;45044;41.572;24.730;2024-02-16T01:28:11;6.20;;;3.33;;
59273;SDS011;45044;41.572;24.730;2024-02-16T01:30:39;9.40;;;3.40;;
59273;SDS011;45044;41.572;24.730;2024-02-16T01:33:06;17.87;;;8.77;;
59273;SDS011;45044;41.572;24.730;2024-02-16T01:35:33;9.17;;;4.70;;
59273;SDS011;45044;41.572;24.730;2024-02-16T01:38:00;13.40;;;6.03;;
59273;SDS011;45044;41.572;24.730;2024-02-16T01:40:28;17.07;;;8.77;;
59273;SDS011;45044;41.572;24.730;2024-02-16T01:42:56;18.87;;;8.60;;
59273;SDS011;45044;41.572;24.730;2024-02-16T01:45:23;14.03;;;6.87;;
59273;SDS011;45044;41.572;24.730;2024-02-16T01:47:51;14.47;;;6.63;;
59273;SDS011;45044;41.572;24.730;2024-02-16T01:50:18;13.43;;;6.70;;
59273;SDS011;45044;41.572;24.730;2024-02-16T01:52:46;14.50;;;7.30;;
59273;SDS011;45044;41.572;24.730;2024-02-16T01:55:14;13.30;;;5.67;;
59273;SDS011;45044;41.572;24.730;2024-02-16T01:57:46;9.17;;;5.00;;
59273;SDS011;45044;41.572;24.730;2024-02-16T02:00:14;12.40;;;6.10;;
59273;SDS011;45044;41.572;24.730;2024-02-16T02:02:43;15.17;;;7.70;;
59273;SDS011;45044;41.572;24.730;2024-02-16T02:05:12;15.87;;;8.97;;
59273;SDS011;45044;41.572;24.730;2024-02-16T02:07:39;15.60;;;8.67;;
59273;SDS011;45044;41.572;24.730;2024-02-16T02:10:06;16.33;;;7.57;;
59273;SDS011;45044;41.572;24.730;2024-02-16T02:12:33;14.47;;;7.23;;
59273;SDS011;45044;41.572;24.730;2024-02-16T02:15:00;15.47;;;7.53;;
59273;SDS011;45044;41.572;24.730;2024-02-16T02:17:27;18.67;;;10.40;;
59273;SDS011;45044;41.572;24.730;2024-02-16T02:19:54;15.97;;;9.90;;
59273;SDS011;45044;41.572;24.730;2024-02-16T02:22:23;14.50;;;8.97;;
59273;SDS011;45044;41.572;24.730;2024-02-16T02:24:50;12.73;;;6.23;;
59273;SDS011;45044;41.572;24.730;2024-02-16T02:27:17;14.17;;;8.20;;
59273;SDS011;45044;41.572;24.730;2024-02-16T02:29:49;13.30;;;7.67;;
59273;SDS011;45044;41.572;24.730;2024-02-16T02:32:16;21.07;;;9.70;;
59273;SDS011;45044;41.572;24.730;2024-02-16T02:34:43;18.87;;;10.57;;
59273;SDS011;45044;41.572;24.730;2024-02-16T02:37:10;19.67;;;9.93;;
59273;SDS011;45044;41.572;24.730;2024-02-16T02:39:36;27.57;;;12.60;;
59273;SDS011;45044;41.572;24.730;2024-02-16T02:42:03;23.97;;;11.03;;
59273;SDS011;45044;41.572;24.730;2024-02-16T02:44:30;44.50;;;17.37;;
59273;SDS011;45044;41.572;24.730;2024-02-16T02:46:58;28.67;;;12.90;;
59273;SDS011;45044;41.572;24.730;2024-02-16T02:49:25;17.80;;;8.67;;
59273;SDS011;45044;41.572;24.730;2024-02-16T02:51:52;18.90;;;9.17;;
59273;SDS011;45044;41.572;24.730;2024-02-16T02:54:18;19.00;;;9.77;;
59273;SDS011;45044;41.572;24.730;2024-02-16T02:56:46;26.70;;;13.37;;
59273;SDS011;45044;41.572;24.730;2024-02-16T02:59:12;21.87;;;11.57;;
59273;SDS011;45044;41.572;24.730;2024-02-16T03:01:40;22.93;;;13.00;;
59273;SDS011;45044;41.572;24.730;2024-02-16T03:04:07;21.13;;;11.23;;
59273;SDS011;45044;41.572;24.730;2024-02-16T03:06:33;21.13;;;12.70;;
59273;SDS011;45044;41.572;24.730;2024-02-16T03:09:00;17.53;;;9.97;;
59273;SDS011;45044;41.572;24.730;2024-02-16T03:11:27;19.37;;;8.93;;
59273;SDS011;45044;41.572;24.730;2024-02-16T03:13:54;19.97;;;9.20;;
59273;SDS011;45044;41.572;24.730;2024-02-16T03:16:21;18.37;;;9.00;;
59273;SDS011;45044;41.572;24.730;2024-02-16T03:18:48;16.80;;;8.03;;
59273;SDS011;45044;41.572;24.730;2024-02-16T03:21:16;40.40;;;21.80;;
59273;SDS011;45044;41.572;24.730;2024-02-16T03:23:43;36.40;;;18.87;;
59273;SDS011;45044;41.572;24.730;2024-02-16T03:26:17;27.10;;;14.20;;
59273;SDS011;45044;41.572;24.730;2024-02-16T03:28:45;40.58;;;18.42;;
59273;SDS011;45044;41.572;24.730;2024-02-16T03:31:20;38.67;;;19.20;;
59273;SDS011;45044;41.572;24.730;2024-02-16T03:33:51;41.78;;;20.45;;
59273;SDS011;45044;41.572;24.730;2024-02-16T03:36:18;52.23;;;23.50;;
59273;SDS011;45044;41.572;24.730;2024-02-16T03:38:47;49.83;;;22.70;;
59273;SDS011;45044;41.572;24.730;2024-02-16T03:41:18;44.30;;;20.90;;
59273;SDS011;45044;41.572;24.730;2024-02-16T03:43:46;44.03;;;19.80;;
59273;SDS011;45044;41.572;24.730;2024-02-16T03:46:13;28.93;;;14.47;;
59273;SDS011;45044;41.572;24.730;2024-02-16T03:48:40;41.90;;;19.37;;
59273;SDS011;45044;41.572;24.730;2024-02-16T03:51:09;34.13;;;17.77;;
59273;SDS011;45044;41.572;24.730;2024-02-16T03:53:35;49.93;;;22.47;;
59273;SDS011;45044;41.572;24.730;2024-02-16T03:56:02;37.67;;;19.33;;
59273;SDS011;45044;41.572;24.730;2024-02-16T03:58:30;72.23;;;31.10;;
59273;SDS011;45044;41.572;24.730;2024-02-16T04:00:57;62.87;;;28.63;;
59273;SDS011;45044;41.572;24.730;2024-02-16T04:03:25;59.63;;;28.47;;
59273;SDS011;45044;41.572;24.730;2024-02-16T04:05:51;54.73;;;25.73;;
59273;SDS011;45044;41.572;24.730;2024-02-16T04:08:19;34.97;;;17.83;;
59273;SDS011;45044;41.572;24.730;2024-02-16T04:10:46;28.60;;;13.80;;
59273;SDS011;45044;41.572;24.730;2024-02-16T04:13:13;32.57;;;15.10;;
59273;SDS011;45044;41.572;24.730;2024-02-16T04:15:40;26.47;;;13.70;;
59273;SDS011;45044;41.572;24.730;2024-02-16T04:18:08;30.97;;;15.50;;
59273;SDS011;45044;41.572;24.730;2024-02-16T04:20:36;32.83;;;18.70;;
59273;SDS011;45044;41.572;24.730;2024-02-16T04:23:04;42.30;;;21.57;;
59273;SDS011;45044;41.572;24.730;2024-02-16T04:25:31;37.77;;;19.43;;
59273;SDS011;45044;41.572;24.730;2024-02-16T04:27:58;35.23;;;18.60;;
59273;SDS011;45044;41.572;24.730;2024-02-16T04:30:25;35.23;;;19.97;;
59273;SDS011;45044;41.572;24.730;2024-02-16T04:32:52;37.37;;;19.63;;
59273;SDS011;45044;41.572;24.730;2024-02-16T04:35:19;33.47;;;18.17;;
59273;SDS011;45044;41.572;24.730;2024-02-16T04:37:46;32.03;;;20.10;;
59273;SDS011;45044;41.572;24.730;2024-02-16T04:40:13;34.77;;;21.43;;
59273;SDS011;45044;41.572;24.730;2024-02-16T04:42:42;33.20;;;20.80;;
59273;SDS011;45044;41.572;24.730;2024-02-16T04:45:12;34.90;;;19.90;;
59273;SDS011;45044;41.572;24.730;2024-02-16T04:47:41;40.57;;;21.00;;
59273;SDS011;45044;41.572;24.730;2024-02-16T04:50:08;33.30;;;20.80;;
59273;SDS011;45044;41.572;24.730;2024-02-16T04:52:38;43.60;;;26.00;;
59273;SDS011;45044;41.572;24.730;2024-02-16T04:55:07;33.83;;;20.23;;
59273;SDS011;45044;41.572;24.730;2024-02-16T04:57:34;22.50;;;15.60;;
59273;SDS011;45044;41.572;24.730;2024-02-16T05:00:02;18.50;;;13.67;;
59273;SDS011;45044;41.572;24.730;2024-02-16T05:02:29;22.77;;;15.17;;
59273;SDS011;45044;41.572;24.730;2024-02-16T05:04:57;24.90;;;16.10;;
59273;SDS011;45044;41.572;24.730;2024-02-16T05:07:29;29.23;;;18.17;;
59273;SDS011;45044;41.572;24.730;2024-02-16T05:09:58;26.07;;;17.53;;
59273;SDS011;45044;41.572;24.730;2024-02-16T05:12:25;31.67;;;19.33;;
59273;SDS011;45044;41.572;24.730;2024-02-16T05:14:53;38.80;;;23.93;;
59273;SDS011;45044;41.572;24.730;2024-02-16T05:17:20;36.27;;;22.63;;
59273;SDS011;45044;41.572;24.730;2024-02-16T05:19:49;36.33;;;22.33;;
59273;SDS011;45044;41.572;24.730;2024-02-16T05:22:16;40.87;;;23.33;;
59273;SDS011;45044;41.572;24.730;2024-02-16T05:24:48;38.20;;;23.17;;
59273;SDS011;45044;41.572;24.730;2024-02-16T05:27:15;32.40;;;22.30;;
59273;SDS011;45044;41.572;24.730;2024-02-16T05:29:43;36.40;;;22.43;;
59273;SDS011;45044;41.572;24.730;2024-02-16T05:32:11;36.63;;;23.33;;
59273;SDS011;45044;41.572;24.730;2024-02-16T05:34:39;48.97;;;26.97;;
59273;SDS011;45044;41.572;24.730;2024-02-16T05:37:07;35.63;;;19.17;;
59273;SDS011;45044;41.572;24.730;2024-02-16T05:39:37;33.63;;;19.03;;
59273;SDS011;45044;41.572;24.730;2024-02-16T05:42:20;29.40;;;17.10;;
59273;SDS011;45044;41.572;24.730;2024-02-16T05:44:50;31.10;;;18.53;;
59273;SDS011;45044;41.572;24.730;2024-02-16T05:47:17;34.17;;;20.20;;
59273;SDS011;45044;41.572;24.730;2024-02-16T05:49:45;41.27;;;21.93;;
59273;SDS011;45044;41.572;24.730;2024-02-16T05:52:13;41.53;;;23.23;;
59273;SDS011;45044;41.572;24.730;2024-02-16T05:54:47;43.45;;;26.50;;
59273;SDS011;45044;41.572;24.730;2024-02-16T05:57:15;57.30;;;31.60;;
59273;SDS011;45044;41.572;24.730;2024-02-16T05:59:43;57.57;;;32.90;;
59273;SDS011;45044;41.572;24.730;2024-02-16T06:02:10;88.13;;;45.63;;
59273;SDS011;45044;41.572;24.730;2024-02-16T06:04:38;73.83;;;43.73;;
59273;SDS011;45044;41.572;24.730;2024-02-16T06:07:06;63.67;;;34.33;;
59273;SDS011;45044;41.572;24.730;2024-02-16T06:09:33;56.03;;;34.50;;
59273;SDS011;45044;41.572;24.730;2024-02-16T06:12:02;66.87;;;38.10;;
59273;SDS011;45044;41.572;24.730;2024-02-16T06:14:31;71.77;;;42.30;;
59273;SDS011;45044;41.572;24.730;2024-02-16T06:16:58;84.53;;;44.57;;
59273;SDS011;45044;41.572;24.730;2024-02-16T06:19:25;79.47;;;45.43;;
59273;SDS011;45044;41.572;24.730;2024-02-16T06:21:53;79.67;;;44.43;;
59273;SDS011;45044;41.572;24.730;2024-02-16T06:24:24;77.43;;;43.77;;
59273;SDS011;45044;41.572;24.730;2024-02-16T06:26:51;70.40;;;40.90;;
59273;SDS011;45044;41.572;24.730;2024-02-16T06:29:23;67.20;;;40.30;;
59273;SDS011;45044;41.572;24.730;2024-02-16T06:31:51;65.07;;;38.17;;
59273;SDS011;45044;41.572;24.730;2024-02-16T06:34:19;60.70;;;37.07;;
59273;SDS011;45044;41.572;24.730;2024-02-16T06:36:47;53.63;;;34.40;;
59273;SDS011;45044;41.572;24.730;2024-02-16T06:39:15;50.57;;;34.10;;
59273;SDS011;45044;41.572;24.730;2024-02-16T06:41:43;81.67;;;43.73;;
59273;SDS011;45044;41.572;24.730;2024-02-16T06:44:12;53.85;;;37.35;;
59273;SDS011;45044;41.572;24.730;2024-02-16T06:46:40;56.00;;;36.80;;
59273;SDS011;45044;41.572;24.730;2024-02-16T06:49:07;46.33;;;32.35;;
59273;SDS011;45044;41.572;24.730;2024-02-16T06:51:36;65.05;;;46.28;;
59273;SDS011;45044;41.572;24.730;2024-02-16T06:54:04;53.58;;;37.03;;
59273;SDS011;45044;41.572;24.730;2024-02-16T06:56:31;48.15;;;34.22;;
59273;SDS011;45044;41.572;24.730;2024-02-16T06:58:58;45.38;;;31.58;;
59273;SDS011;45044;41.572;24.730;2024-02-16T07:01:25;47.65;;;33.38;;
59273;SDS011;45044;41.572;24.730;2024-02-16T07:03:55;42.95;;;29.95;;
59273;SDS011;45044;41.572;24.730;2024-02-16T07:06:22;37.40;;;27.80;;
59273;SDS011;45044;41.572;24.730;2024-02-16T07:08:49;38.17;;;29.25;;
59273;SDS011;45044;41.572;24.730;2024-02-16T07:11:17;39.60;;;27.05;;
59273;SDS011;45044;41.572;24.730;2024-02-16T07:13:51;42.67;;;28.95;;
59273;SDS011;45044;41.572;24.730;2024-02-16T07:16:18;46.38;;;34.10;;
59273;SDS011;45044;41.572;24.730;2024-02-16T07:18:45;39.90;;;29.08;;
59273;SDS011;45044;41.572;24.730;2024-02-16T07:21:12;51.17;;;34.42;;
59273;SDS011;45044;41.572;24.730;2024-02-16T07:23:40;42.35;;;29.38;;
59273;SDS011;45044;41.572;24.730;2024-02-16T07:26:06;50.38;;;35.63;;
59273;SDS011;45044;41.572;24.730;2024-02-16T07:28:34;43.60;;;30.85;;
59273;SDS011;45044;41.572;24.730;2024-02-16T07:31:01;49.10;;;31.52;;
59273;SDS011;45044;41.572;24.730;2024-02-16T07:33:29;51.22;;;32.85;;
59273;SDS011;45044;41.572;24.730;2024-02-16T07:35:56;46.85;;;31.13;;
59273;SDS011;45044;41.572;24.730;2024-02-16T07:38:23;49.35;;;29.05;;
59273;SDS011;45044;41.572;24.730;2024-02-16T07:40:50;29.25;;;18.38;;
59273;SDS011;45044;41.572;24.730;2024-02-16T07:43:17;41.40;;;25.40;;
59273;SDS011;45044;41.572;24.730;2024-02-16T07:45:45;34.60;;;21.98;;
59273;SDS011;45044;41.572;24.730;2024-02-16T07:48:12;37.80;;;22.73;;
59273;SDS011;45044;41.572;24.730;2024-02-16T07:50:39;33.58;;;19.45;;
59273;SDS011;45044;41.572;24.730;2024-02-16T07:53:06;38.70;;;24.25;;
59273;SDS011;45044;41.572;24.730;2024-02-16T07:55:33;36.78;;;23.25;;
59273;SDS011;45044;41.572;24.730;2024-02-16T07:58:00;31.48;;;22.38;;
59273;SDS011;45044;41.572;24.730;2024-02-16T08:00:27;31.75;;;21.17;;
59273;SDS011;45044;41.572;24.730;2024-02-16T08:02:55;30.77;;;21.05;;
59273;SDS011;45044;41.572;24.730;2024-02-16T08:05:22;28.52;;;20.13;;
59273;SDS011;45044;41.572;24.730;2024-02-16T08:07:51;39.75;;;23.88;;
59273;SDS011;45044;41.572;24.730;2024-02-16T08:10:21;13.20;;;7.30;;
59273;SDS011;45044;41.572;24.730;2024-02-16T08:12:48;10.90;;;5.90;;
59273;SDS011;45044;41.572;24.730;2024-02-16T08:15:15;9.45;;;5.38;;
59273;SDS011;45044;41.572;24.730;2024-02-16T08:17:49;7.65;;;3.55;;
59273;SDS011;45044;41.572;24.730;2024-02-16T08:20:20;27.27;;;13.20;;
59273;SDS011;45044;41.572;24.730;2024-02-16T08:22:47;11.52;;;6.82;;
59273;SDS011;45044;41.572;24.730;2024-02-16T08:25:14;45.08;;;25.00;;
59273;SDS011;45044;41.572;24.730;2024-02-16T08:27:41;14.68;;;9.20;;
59273;SDS011;45044;41.572;24.730;2024-02-16T08:30:08;16.20;;;9.77;;
59273;SDS011;45044;41.572;24.730;2024-02-16T08:32:36;15.52;;;8.50;;
59273;SDS011;45044;41.572;24.730;2024-02-16T08:35:03;10.52;;;6.13;;
59273;SDS011;45044;41.572;24.730;2024-02-16T08:37:30;4.68;;;2.40;;
59273;SDS011;45044;41.572;24.730;2024-02-16T08:39:57;6.38;;;3.53;;
59273;SDS011;45044;41.572;24.730;2024-02-16T08:42:24;5.50;;;3.10;;
59273;SDS011;45044;41.572;24.730;2024-02-16T08:44:51;9.20;;;4.47;;
59273;SDS011;45044;41.572;24.730;2024-02-16T08:47:18;24.08;;;14.50;;
59273;SDS011;45044;41.572;24.730;2024-02-16T08:49:45;13.38;;;7.72;;
59273;SDS011;45044;41.572;24.730;2024-02-16T08:52:12;13.77;;;8.50;;
59273;SDS011;45044;41.572;24.730;2024-02-16T08:54:39;22.73;;;12.40;;
59273;SDS011;45044;41.572;24.730;2024-02-16T08:57:09;15.32;;;8.70;;
59273;SDS011;45044;41.572;24.730;2024-02-16T08:59:36;10.70;;;5.18;;
59273;SDS011;45044;41.572;24.730;2024-02-16T09:02:03;10.35;;;5.20;;
59273;SDS011;45044;41.572;24.730;2024-02-16T09:04:30;6.60;;;3.33;;
59273;SDS011;45044;41.572;24.730;2024-02-16T09:06:57;7.35;;;3.75;;
59273;SDS011;45044;41.572;24.730;2024-02-16T09:09:24;7.07;;;3.30;;
59273;SDS011;45044;41.572;24.730;2024-02-16T09:11:50;8.18;;;4.20;;
59273;SDS011;45044;41.572;24.730;2024-02-16T09:14:17;6.22;;;3.33;;
59273;SDS011;45044;41.572;24.730;2024-02-16T09:16:44;6.95;;;4.22;;
59273;SDS011;45044;41.572;24.730;2024-02-16T09:19:11;9.05;;;4.63;;
59273;SDS011;45044;41.572;24.730;2024-02-16T09:21:39;8.77;;;4.93;;
59273;SDS011;45044;41.572;24.730;2024-02-16T09:24:05;8.25;;;4.72;;
59273;SDS011;45044;41.572;24.730;2024-02-16T09:26:37;8.40;;;4.28;;
59273;SDS011;45044;41.572;24.730;2024-02-16T09:29:03;4.68;;;2.70;;
59273;SDS011;45044;41.572;24.730;2024-02-16T09:31:30;5.43;;;2.83;;
59273;SDS011;45044;41.572;24.730;2024-02-16T09:33:58;5.40;;;3.20;;
59273;SDS011;45044;41.572;24.730;2024-02-16T09:36:25;6.93;;;3.75;;
59273;SDS011;45044;41.572;24.730;2024-02-16T09:38:54;8.02;;;4.28;;
59273;SDS011;45044;41.572;24.730;2024-02-16T09:41:23;9.65;;;5.18;;
59273;SDS011;45044;41.572;24.730;2024-02-16T09:43:50;7.57;;;3.72;;
59273;SDS011;45044;41.572;24.730;2024-02-16T09:46:21;8.48;;;4.93;;
59273;SDS011;45044;41.572;24.730;2024-02-16T09:49:02;9.15;;;4.80;;
59273;SDS011;45044;41.572;24.730;2024-02-16T09:51:30;9.30;;;4.38;;
59273;SDS011;45044;41.572;24.730;2024-02-16T09:53:57;9.00;;;6.35;;
59273;SDS011;45044;41.572;24.730;2024-02-16T09:56:26;12.20;;;9.52;;
59273;SDS011;45044;41.572;24.730;2024-02-16T09:58:53;15.23;;;8.02;;
59273;SDS011;45044;41.572;24.730;2024-02-16T10:01:23;6.03;;;3.50;;
59273;SDS011;45044;41.572;24.730;2024-02-16T10:03:51;9.68;;;5.50;;
59273;SDS011;45044;41.572;24.730;2024-02-16T10:06:18;12.40;;;7.00;;
59273;SDS011;45044;41.572;24.730;2024-02-16T10:11:19;8.80;;;4.85;;
59273;SDS011;45044;41.572;24.730;2024-02-16T10:13:59;14.05;;;7.93;;
59273;SDS011;45044;41.572;24.730;2024-02-16T10:16:29;7.55;;;4.05;;
59273;SDS011;45044;41.572;24.730;2024-02-16T10:19:07;6.63;;;3.97;;
59273;SDS011;45044;41.572;24.730;2024-02-16T10:21:41;8.60;;;4.97;;
59273;SDS011;45044;41.572;24.730;2024-02-16T10:24:11;10.23;;;4.43;;
59273;SDS011;45044;41.572;24.730;2024-02-16T10:26:40;7.80;;;4.28;;
59273;SDS011;45044;41.572;24.730;2024-02-16T10:29:15;5.40;;;3.03;;
59273;SDS011;45044;41.572;24.730;2024-02-16T10:31:46;25.33;;;14.45;;
59273;SDS011;45044;41.572;24.730;2024-02-16T10:34:21;11.98;;;6.78;;
59273;SDS011;45044;41.572;24.730;2024-02-16T10:36:51;13.60;;;6.78;;
59273;SDS011;45044;41.572;24.730;2024-02-16T10:39:18;16.77;;;7.95;;
59273;SDS011;45044;41.572;24.730;2024-02-16T10:41:45;12.73;;;5.38;;
59273;SDS011;45044;41.572;24.730;2024-02-16T10:44:15;12.05;;;5.95;;
59273;SDS011;45044;41.572;24.730;2024-02-16T10:46:42;6.82;;;3.55;;
59273;SDS011;45044;41.572;24.730;2024-02-16T10:49:09;9.60;;;5.10;;
59273;SDS011;45044;41.572;24.730;2024-02-16T10:51:47;6.28;;;3.20;;
59273;SDS011;45044;41.572;24.730;2024-02-16T10:54:21;13.35;;;7.07;;
59273;SDS011;45044;41.572;24.730;2024-02-16T10:56:53;12.38;;;6.47;;
59273;SDS011;45044;41.572;24.730;2024-02-16T10:59:21;5.40;;;2.75;;
59273;SDS011;45044;41.572;24.730;2024-02-16T11:01:47;9.27;;;4.65;;
59273;SDS011;45044;41.572;24.730;2024-02-16T11:04:18;16.85;;;9.02;;
59273;SDS011;45044;41.572;24.730;2024-02-16T11:09:50;9.43;;;5.30;;
59273;SDS011;45044;41.572;24.730;2024-02-16T11:12:11;7.20;;;4.30;;
59273;SDS011;45044;41.572;24.730;2024-02-16T11:14:42;44.92;;;27.05;;
59273;SDS011;45044;41.572;24.730;2024-02-16T11:17:13;9.52;;;5.03;;
59273;SDS011;45044;41.572;24.730;2024-02-16T11:19:47;8.63;;;5.18;;
59273;SDS011;45044;41.572;24.730;2024-02-16T11:22:18;8.05;;;4.30;;
59273;SDS011;45044;41.572;24.730;2024-02-16T11:24:50;7.32;;;4.60;;
59273;SDS011;45044;41.572;24.730;2024-02-16T11:27:25;8.35;;;4.47;;
59273;SDS011;45044;41.572;24.730;2024-02-16T11:29:52;7.70;;;4.38;;
59273;SDS011;45044;41.572;24.730;2024-02-16T11:32:20;7.55;;;3.83;;
59273;SDS011;45044;41.572;24.730;2024-02-16T11:34:47;6.88;;;3.67;;
59273;SDS011;45044;41.572;24.730;2024-02-16T11:37:15;9.68;;;5.25;;
59273;SDS011;45044;41.572;24.730;2024-02-16T11:39:42;12.35;;;6.75;;
59273;SDS011;45044;41.572;24.730;2024-02-16T11:42:12;8.52;;;4.30;;
59273;SDS011;45044;41.572;24.730;2024-02-16T11:44:50;8.80;;;6.43;;
59273;SDS011;45044;41.572;24.730;2024-02-16T11:47:23;7.22;;;4.38;;
59273;SDS011;45044;41.572;24.730;2024-02-16T11:50:03;6.10;;;3.47;;
59273;SDS011;45044;41.572;24.730;2024-02-16T11:52:38;7.50;;;3.95;;
59273;SDS011;45044;41.572;24.730;2024-02-16T11:55:08;8.20;;;4.43;;
59273;SDS011;45044;41.572;24.730;2024-02-16T11:57:36;6.70;;;3.78;;
59273;SDS011;45044;41.572;24.730;2024-02-16T12:00:06;9.52;;;4.53;;
59273;SDS011;45044;41.572;24.730;2024-02-16T12:02:35;5.80;;;2.53;;
59273;SDS011;45044;41.572;24.730;2024-02-16T12:05:03;6.13;;;3.85;;
59273;SDS011;45044;41.572;24.730;2024-02-16T12:07:31;9.00;;;4.15;;
59273;SDS011;45044;41.572;24.730;2024-02-16T12:10:01;5.55;;;2.20;;
59273;SDS011;45044;41.572;24.730;2024-02-16T12:12:31;6.63;;;3.70;;
59273;SDS011;45044;41.572;24.730;2024-02-16T12:14:59;6.03;;;3.65;;
59273;SDS011;45044;41.572;24.730;2024-02-16T12:17:26;6.30;;;3.60;;
59273;SDS011;45044;41.572;24.730;2024-02-16T12:19:52;7.75;;;3.78;;
59273;SDS011;45044;41.572;24.730;2024-02-16T12:22:20;6.60;;;3.53;;
59273;SDS011;45044;41.572;24.730;2024-02-16T12:24:48;9.85;;;6.53;;
59273;SDS011;45044;41.572;24.730;2024-02-16T12:27:19;6.00;;;3.10;;
59273;SDS011;45044;41.572;24.730;2024-02-16T12:29:45;11.90;;;6.18;;
59273;SDS011;45044;41.572;24.730;2024-02-16T12:32:13;6.00;;;3.28;;
59273;SDS011;45044;41.572;24.730;2024-02-16T12:34:45;5.95;;;2.60;;
59273;SDS011;45044;41.572;24.730;2024-02-16T12:37:12;15.57;;;10.70;;
59273;SDS011;45044;41.572;24.730;2024-02-16T12:39:39;7.10;;;4.13;;
59273;SDS011;45044;41.572;24.730;2024-02-16T12:42:06;6.20;;;3.65;;
59273;SDS011;45044;41.572;24.730;2024-02-16T12:44:34;6.63;;;3.58;;
59273;SDS011;45044;41.572;24.730;2024-02-16T12:47:00;6.13;;;4.07;;
59273;SDS011;45044;41.572;24.730;2024-02-16T12:49:27;6.40;;;2.95;;
59273;SDS011;45044;41.572;24.730;2024-02-16T12:51:54;5.70;;;3.00;;
59273;SDS011;45044;41.572;24.730;2024-02-16T12:54:21;5.55;;;2.95;;
59273;SDS011;45044;41.572;24.730;2024-02-16T12:56:49;5.03;;;2.30;;
59273;SDS011;45044;41.572;24.730;2024-02-16T12:59:16;8.52;;;4.70;;
59273;SDS011;45044;41.572;24.730;2024-02-16T13:01:43;5.28;;;2.72;;
59273;SDS011;45044;41.572;24.730;2024-02-16T13:04:10;4.35;;;2.65;;
59273;SDS011;45044;41.572;24.730;2024-02-16T13:06:40;7.78;;;4.35;;
59273;SDS011;45044;41.572;24.730;2024-02-16T13:09:07;5.40;;;2.50;;
59273;SDS011;45044;41.572;24.730;2024-02-16T13:11:35;7.72;;;2.92;;
59273;SDS011;45044;41.572;24.730;2024-02-16T13:14:03;4.90;;;2.70;;
59273;SDS011;45044;41.572;24.730;2024-02-16T13:16:30;6.05;;;3.00;;
59273;SDS011;45044;41.572;24.730;2024-02-16T13:18:56;5.15;;;2.60;;
59273;SDS011;45044;41.572;24.730;2024-02-16T13:21:23;4.90;;;2.60;;
59273;SDS011;45044;41.572;24.730;2024-02-16T13:23:50;11.05;;;5.22;;
59273;SDS011;45044;41.572;24.730;2024-02-16T13:26:34;6.85;;;2.95;;
59273;SDS011;45044;41.572;24.730;2024-02-16T13:29:18;8.23;;;3.10;;
59273;SDS011;45044;41.572;24.730;2024-02-16T13:32:04;7.95;;;4.70;;
59273;SDS011;45044;41.572;24.730;2024-02-16T13:34:48;5.75;;;3.08;;
59273;SDS011;45044;41.572;24.730;2024-02-16T13:37:15;4.55;;;2.90;;
59273;SDS011;45044;41.572;24.730;2024-02-16T13:39:42;6.40;;;3.30;;
59273;SDS011;45044;41.572;24.730;2024-02-16T13:42:27;6.70;;;3.78;;
59273;SDS011;45044;41.572;24.730;2024-02-16T13:45:11;6.22;;;3.55;;
59273;SDS011;45044;41.572;24.730;2024-02-16T13:47:56;5.95;;;2.60;;
59273;SDS011;45044;41.572;24.730;2024-02-16T13:53:27;6.38;;;3.33;;
59273;SDS011;45044;41.572;24.730;2024-02-16T13:56:11;7.05;;;3.15;;
59273;SDS011;45044;41.572;24.730;2024-02-16T13:58:55;6.68;;;3.28;;
59273;SDS011;45044;41.572;24.730;2024-02-16T14:01:22;10.65;;;5.57;;
59273;SDS011;45044;41.572;24.730;2024-02-16T14:03:49;4.93;;;2.53;;
59273;SDS011;45044;41.572;24.730;2024-02-16T14:06:17;5.97;;;3.70;;
59273;SDS011;45044;41.572;24.730;2024-02-16T14:08:44;4.25;;;2.40;;
59273;SDS011;45044;41.572;24.730;2024-02-16T14:11:14;7.00;;;4.15;;
59273;SDS011;45044;41.572;24.730;2024-02-16T14:13:41;14.02;;;7.55;;
59273;SDS011;45044;41.572;24.730;2024-02-16T14:16:08;10.57;;;5.53;;
59273;SDS011;45044;41.572;24.730;2024-02-16T14:18:37;8.25;;;4.43;;
59273;SDS011;45044;41.572;24.730;2024-02-16T14:21:08;7.30;;;4.00;;
59273;SDS011;45044;41.572;24.730;2024-02-16T14:23:38;13.88;;;11.07;;
59273;SDS011;45044;41.572;24.730;2024-02-16T14:26:05;8.48;;;5.00;;
59273;SDS011;45044;41.572;24.730;2024-02-16T14:28:37;7.47;;;4.38;;
59273;SDS011;45044;41.572;24.730;2024-02-16T14:31:04;7.50;;;4.82;;
59273;SDS011;45044;41.572;24.730;2024-02-16T14:33:33;7.57;;;4.60;;
59273;SDS011;45044;41.572;24.730;2024-02-16T14:36:15;6.90;;;4.07;;
59273;SDS011;45044;41.572;24.730;2024-02-16T14:38:44;6.13;;;3.55;;